createdAt,value
2019-03-25T00:00:22.148Z,263.51
2019-03-25T00:01:22.482Z,263.62
2019-03-25T00:02:22.793Z,262.55
2019-03-25T00:03:23.153Z,262.64
2019-03-25T00:04:23.445Z,263.19
2019-03-25T00:05:23.811Z,263.30
2019-03-25T00:06:24.117Z,263.36
2019-03-25T00:07:24.540Z,263.86
2019-03-25T00:08:24.795Z,263.36
2019-03-25T00:09:25.075Z,264.34
2019-03-25T00:10:25.444Z,264.09
2019-03-25T00:11:25.771Z,263.70
2019-03-25T00:12:26.101Z,263.58
2019-03-25T00:13:26.472Z,263.40
2019-03-25T00:14:26.760Z,263.86
2019-03-25T00:15:27.136Z,263.66
2019-03-25T00:16:27.424Z,263.43
2019-03-25T00:17:27.758Z,263.37
2019-03-25T00:18:28.101Z,264.27
2019-03-25T00:19:28.407Z,263.39
2019-03-25T00:20:28.755Z,264.18
2019-03-25T00:21:29.063Z,263.98
2019-03-25T00:22:29.393Z,264.15
2019-03-25T00:23:29.769Z,264.93
2019-03-25T00:24:38.246Z,263.92
2019-03-25T00:25:31.460Z,264.04
2019-03-25T00:26:30.767Z,264.35
2019-03-25T00:27:31.074Z,264.11
2019-03-25T00:28:31.452Z,263.91
2019-03-25T00:29:45.402Z,263.19
2019-03-25T00:30:32.087Z,263.13
2019-03-25T00:31:32.462Z,263.86
2019-03-25T00:32:33.051Z,264.51
2019-03-25T00:33:33.089Z,264.67
2019-03-25T00:34:33.397Z,263.94
2019-03-25T00:35:33.740Z,264.19
2019-03-25T00:36:34.066Z,264.62
2019-03-25T00:37:34.375Z,264.24
2019-03-25T00:38:34.707Z,263.55
2019-03-25T00:39:35.039Z,264.40
2019-03-25T00:40:35.440Z,264.42
2019-03-25T00:41:35.686Z,263.66
2019-03-25T00:42:35.997Z,265.01
2019-03-25T00:43:36.356Z,264.11
2019-03-25T00:44:36.687Z,264.39
2019-03-25T00:45:37.006Z,264.04
2019-03-25T00:46:37.352Z,264.05
2019-03-25T00:47:37.687Z,264.64
2019-03-25T00:48:38.036Z,264.30
2019-03-25T00:49:38.334Z,264.10
2019-03-25T00:50:38.674Z,264.21
2019-03-25T00:51:39.016Z,263.15
2019-03-25T00:52:39.346Z,263.11
2019-03-25T00:53:39.699Z,264.13
2019-03-25T00:54:49.381Z,264.38
2019-03-25T00:55:41.315Z,263.62
2019-03-25T00:56:40.734Z,264.07
2019-03-25T00:57:40.969Z,263.75
2019-03-25T00:58:41.327Z,263.54
2019-03-25T00:59:41.661Z,264.16
2019-03-25T01:00:41.956Z,263.57
2019-03-25T01:01:42.308Z,263.94
2019-03-25T01:02:42.659Z,263.08
2019-03-25T01:03:43.017Z,263.82
2019-03-25T01:04:43.336Z,263.62
2019-03-25T01:05:43.692Z,263.30
2019-03-25T01:06:43.965Z,263.08
2019-03-25T01:07:44.298Z,264.13
2019-03-25T01:08:44.650Z,262.42
2019-03-25T01:09:44.960Z,263.62
2019-03-25T01:10:45.280Z,264.12
2019-03-25T01:11:49.125Z,264.10
2019-03-25T01:12:45.924Z,262.67
2019-03-25T01:13:46.403Z,263.66
2019-03-25T01:14:46.608Z,263.41
2019-03-25T01:15:46.922Z,264.44
2019-03-25T01:16:47.255Z,263.76
2019-03-25T01:17:47.566Z,262.68
2019-03-25T01:18:47.943Z,262.35
2019-03-25T01:19:48.264Z,263.40
2019-03-25T01:20:48.578Z,263.18
2019-03-25T01:21:48.988Z,263.86
2019-03-25T01:22:49.203Z,263.75
2019-03-25T01:23:49.569Z,263.43
2019-03-25T01:25:00.821Z,263.58
2019-03-25T01:25:51.213Z,263.78
2019-03-25T01:26:50.565Z,264.02
2019-03-25T01:27:50.869Z,263.04
2019-03-25T01:28:51.213Z,263.93
2019-03-25T01:29:51.597Z,263.22
2019-03-25T01:30:51.857Z,262.93
2019-03-25T01:31:52.211Z,262.61
2019-03-25T01:32:52.516Z,263.37
2019-03-25T01:33:52.861Z,264.07
2019-03-25T01:34:53.177Z,263.25
2019-03-25T01:35:53.518Z,263.37
2019-03-25T01:36:53.860Z,263.18
2019-03-25T01:37:54.212Z,263.46
2019-03-25T01:38:54.559Z,263.21
2019-03-25T01:39:54.823Z,264.15
2019-03-25T01:40:55.160Z,263.69
2019-03-25T01:41:55.506Z,263.28
2019-03-25T01:42:55.808Z,263.91
2019-03-25T01:43:56.165Z,264.45
2019-03-25T01:44:56.495Z,263.32
2019-03-25T01:45:56.796Z,264.17
2019-03-25T01:46:57.242Z,263.36
2019-03-25T01:47:57.461Z,212.92
2019-03-25T01:48:57.816Z,212.89
2019-03-25T01:49:58.169Z,212.92
2019-03-25T01:50:58.427Z,212.94
2019-03-25T01:51:58.792Z,212.97
2019-03-25T01:52:59.106Z,212.99
2019-03-25T01:53:59.440Z,213.08
2019-03-25T01:55:00.353Z,213.08
2019-03-25T01:56:00.091Z,213.11
2019-03-25T01:57:00.455Z,213.05
2019-03-25T01:58:00.765Z,213.01
2019-03-25T01:59:01.080Z,212.98
2019-03-25T02:00:01.460Z,213.05
2019-03-25T02:01:01.755Z,213.09
2019-03-25T02:02:02.084Z,213.07
2019-03-25T02:03:02.465Z,213.09
2019-03-25T02:04:02.720Z,213.15
2019-03-25T02:05:03.091Z,213.11
2019-03-25T02:06:03.390Z,213.11
2019-03-25T02:07:03.739Z,213.15
2019-03-25T02:08:04.035Z,213.18
2019-03-25T02:09:04.375Z,213.18
2019-03-25T02:10:04.769Z,213.22
2019-03-25T02:11:05.077Z,213.21
2019-03-25T02:12:05.365Z,213.23
2019-03-25T02:13:05.679Z,213.27
2019-03-25T02:14:06.024Z,213.18
2019-03-25T02:15:06.413Z,213.27
2019-03-25T02:16:06.694Z,213.28
2019-03-25T02:17:07.042Z,213.23
2019-03-25T02:18:07.345Z,213.23
2019-03-25T02:19:07.701Z,213.32
2019-03-25T02:20:08.155Z,213.27
2019-03-25T02:21:08.355Z,213.37
2019-03-25T02:22:08.938Z,213.26
2019-03-25T02:23:09.425Z,213.29
2019-03-25T02:24:09.335Z,213.32
2019-03-25T02:25:09.683Z,213.29
2019-03-25T02:26:10.007Z,213.32
2019-03-25T02:27:10.350Z,213.34
2019-03-25T02:28:10.771Z,213.35
2019-03-25T02:29:10.969Z,213.35
2019-03-25T02:30:11.333Z,213.42
2019-03-25T02:31:11.676Z,213.46
2019-03-25T02:32:12.005Z,213.44
2019-03-25T02:33:12.335Z,213.52
2019-03-25T02:34:12.655Z,213.46
2019-03-25T02:35:12.983Z,213.51
2019-03-25T02:36:13.377Z,213.53
2019-03-25T02:37:13.644Z,213.64
2019-03-25T02:38:13.962Z,213.62
2019-03-25T02:39:14.298Z,213.69
2019-03-25T02:40:14.660Z,213.67
2019-03-25T02:41:14.938Z,213.67
2019-03-25T02:42:15.297Z,213.72
2019-03-25T02:43:15.636Z,213.78
2019-03-25T02:44:15.994Z,213.80
2019-03-25T02:45:16.285Z,213.78
2019-03-25T02:46:16.619Z,213.84
2019-03-25T02:47:16.926Z,213.84
2019-03-25T02:48:17.249Z,213.90
2019-03-25T02:49:17.602Z,213.90
2019-03-25T02:50:17.933Z,213.87
2019-03-25T02:51:18.245Z,213.90
2019-03-25T02:52:18.595Z,213.87
2019-03-25T02:53:18.973Z,213.92
2019-03-25T02:54:19.273Z,213.88
2019-03-25T02:55:19.604Z,213.90
2019-03-25T02:56:19.900Z,213.90
2019-03-25T02:57:20.224Z,213.90
2019-03-25T02:58:20.555Z,213.93
2019-03-25T02:59:20.947Z,213.92
2019-03-25T03:00:21.257Z,213.98
2019-03-25T03:01:21.685Z,213.95
2019-03-25T03:02:21.873Z,213.96
2019-03-25T03:03:22.242Z,214.01
2019-03-25T03:04:22.628Z,213.99
2019-03-25T03:05:22.935Z,213.93
2019-03-25T03:06:23.245Z,214.00
2019-03-25T03:07:23.643Z,214.01
2019-03-25T03:08:23.934Z,213.90
2019-03-25T03:09:24.344Z,213.98
2019-03-25T03:10:24.581Z,213.92
2019-03-25T03:11:24.898Z,213.90
2019-03-25T03:12:25.218Z,213.93
2019-03-25T03:13:25.564Z,213.88
2019-03-25T03:14:25.870Z,213.92
2019-03-25T03:15:26.229Z,213.95
2019-03-25T03:16:26.562Z,213.90
2019-03-25T03:17:26.910Z,213.90
2019-03-25T03:18:27.206Z,213.90
2019-03-25T03:19:27.529Z,213.87
2019-03-25T03:20:27.856Z,213.87
2019-03-25T03:21:28.204Z,213.81
2019-03-25T03:22:28.530Z,213.84
2019-03-25T03:23:28.874Z,213.84
2019-03-25T03:24:29.183Z,213.76
2019-03-25T03:25:29.588Z,213.74
2019-03-25T03:26:29.852Z,213.81
2019-03-25T03:27:30.227Z,213.74
2019-03-25T03:28:30.531Z,213.74
2019-03-25T03:29:30.841Z,213.76
2019-03-25T03:30:31.181Z,213.73
2019-03-25T03:31:31.491Z,213.73
2019-03-25T03:32:31.822Z,213.76
2019-03-25T03:33:32.208Z,213.73
2019-03-25T03:34:32.618Z,213.76
2019-03-25T03:35:32.866Z,213.74
2019-03-25T03:36:33.146Z,213.78
2019-03-25T03:37:33.481Z,213.73
2019-03-25T03:38:33.846Z,213.80
2019-03-25T03:39:34.160Z,213.79
2019-03-25T03:40:34.505Z,213.79
2019-03-25T03:41:34.829Z,213.79
2019-03-25T03:42:35.286Z,213.76
2019-03-25T03:43:35.504Z,213.78
2019-03-25T03:44:35.821Z,213.76
2019-03-25T03:45:36.166Z,213.73
2019-03-25T03:46:36.469Z,213.74
2019-03-25T03:47:36.796Z,213.70
2019-03-25T03:48:37.157Z,213.78
2019-03-25T03:49:37.474Z,213.76
2019-03-25T03:50:37.868Z,213.74
2019-03-25T03:51:38.135Z,213.74
2019-03-25T03:52:38.451Z,213.70
2019-03-25T03:53:38.798Z,213.76
2019-03-25T03:54:39.126Z,213.72
2019-03-25T03:55:39.445Z,213.73
2019-03-25T03:56:39.797Z,213.73
2019-03-25T03:57:40.105Z,213.72
2019-03-25T03:58:40.460Z,213.67
2019-03-25T03:59:40.735Z,213.65
2019-03-25T04:00:41.095Z,213.72
2019-03-25T04:01:41.834Z,213.67
2019-03-25T04:02:41.983Z,213.72
2019-03-25T04:03:42.089Z,213.76
2019-03-25T04:04:42.416Z,213.67
2019-03-25T04:05:42.747Z,213.70
2019-03-25T04:06:43.146Z,213.71
2019-03-25T04:07:43.460Z,213.69
2019-03-25T04:08:43.772Z,213.72
2019-03-25T04:09:44.079Z,213.73
2019-03-25T04:10:44.410Z,213.74
2019-03-25T04:11:44.763Z,213.74
2019-03-25T04:12:45.063Z,213.76
2019-03-25T04:13:45.414Z,213.76
2019-03-25T04:14:45.731Z,213.76
2019-03-25T04:15:46.191Z,213.79
2019-03-25T04:16:46.399Z,213.80
2019-03-25T04:17:46.707Z,213.78
2019-03-25T04:18:47.051Z,213.76
2019-03-25T04:19:47.362Z,213.81
2019-03-25T04:20:47.698Z,213.82
2019-03-25T04:21:48.035Z,213.85
2019-03-25T04:22:48.368Z,213.79
2019-03-25T04:23:48.796Z,213.80
2019-03-25T04:24:49.003Z,213.79
2019-03-25T04:25:49.338Z,213.85
2019-03-25T04:26:49.659Z,213.90
2019-03-25T04:27:50.009Z,213.78
2019-03-25T04:28:50.343Z,213.82
2019-03-25T04:29:50.653Z,213.86
2019-03-25T04:30:50.985Z,213.73
2019-03-25T04:31:51.361Z,213.76
2019-03-25T04:32:51.823Z,213.72
2019-03-25T04:33:51.981Z,213.74
2019-03-25T04:34:52.295Z,213.72
2019-03-25T04:35:52.623Z,213.74
2019-03-25T04:36:52.984Z,213.69
2019-03-25T04:37:56.177Z,213.72
2019-03-25T04:38:53.615Z,213.64
2019-03-25T04:39:54.012Z,213.67
2019-03-25T04:40:54.301Z,213.69
2019-03-25T04:41:54.648Z,213.64
2019-03-25T04:42:54.954Z,213.63
2019-03-25T04:43:55.279Z,213.67
2019-03-25T04:44:55.582Z,213.63
2019-03-25T04:45:55.935Z,213.66
2019-03-25T04:46:56.282Z,213.59
2019-03-25T04:47:56.612Z,213.60
2019-03-25T04:48:57.040Z,213.62
2019-03-25T04:49:57.247Z,213.64
2019-03-25T04:50:57.582Z,213.63
2019-03-25T04:51:57.925Z,213.52
2019-03-25T04:52:58.249Z,213.52
2019-03-25T04:53:58.589Z,213.52
2019-03-25T04:54:58.876Z,213.57
2019-03-25T04:55:59.208Z,213.50
2019-03-25T04:56:59.722Z,213.48
2019-03-25T04:57:59.898Z,213.51
2019-03-25T04:59:00.238Z,213.45
2019-03-25T05:00:00.555Z,213.49
2019-03-25T05:01:05.841Z,213.50
2019-03-25T05:02:01.225Z,213.51
2019-03-25T05:03:01.558Z,213.41
2019-03-25T05:04:01.882Z,213.43
2019-03-25T05:05:02.283Z,213.40
2019-03-25T05:06:02.482Z,213.37
2019-03-25T05:07:02.873Z,213.37
2019-03-25T05:08:03.186Z,213.32
2019-03-25T05:09:03.519Z,213.34
2019-03-25T05:10:03.832Z,213.35
2019-03-25T05:11:04.158Z,213.35
2019-03-25T05:12:04.492Z,213.30
2019-03-25T05:13:04.883Z,213.23
2019-03-25T05:14:05.129Z,213.23
2019-03-25T05:15:05.468Z,213.28
2019-03-25T05:16:05.790Z,213.28
2019-03-25T05:17:06.122Z,213.21
2019-03-25T05:18:06.440Z,213.24
2019-03-25T05:19:06.788Z,213.23
2019-03-25T05:20:07.130Z,264.56
2019-03-25T05:21:07.480Z,264.52
2019-03-25T05:22:07.943Z,265.31
2019-03-25T05:23:08.114Z,263.72
2019-03-25T05:24:08.450Z,263.76
2019-03-25T05:25:08.793Z,265.06
2019-03-25T05:26:09.109Z,264.20
2019-03-25T05:27:09.460Z,263.46
2019-03-25T05:28:09.776Z,264.08
2019-03-25T05:29:10.094Z,265.36
2019-03-25T05:30:10.523Z,263.79
2019-03-25T05:31:10.767Z,264.28
2019-03-25T05:32:11.491Z,263.18
2019-03-25T05:33:11.427Z,264.31
2019-03-25T05:34:11.738Z,264.16
2019-03-25T05:35:12.084Z,264.05
2019-03-25T05:36:12.400Z,263.45
2019-03-25T05:37:12.755Z,263.31
2019-03-25T05:38:13.173Z,263.17
2019-03-25T05:39:13.372Z,264.30
2019-03-25T05:40:13.970Z,262.91
2019-03-25T05:41:14.052Z,264.17
2019-03-25T05:42:14.393Z,264.27
2019-03-25T05:43:14.716Z,264.18
2019-03-25T05:44:15.035Z,263.50
2019-03-25T05:45:15.365Z,263.72
2019-03-25T05:46:15.747Z,263.98
2019-03-25T05:47:16.031Z,263.90
2019-03-25T05:48:16.381Z,263.66
2019-03-25T05:49:16.700Z,263.41
2019-03-25T05:50:17.035Z,264.29
2019-03-25T05:51:17.333Z,263.81
2019-03-25T05:52:17.690Z,263.23
2019-03-25T05:53:18.018Z,264.11
2019-03-25T05:54:18.396Z,263.55
2019-03-25T05:55:18.705Z,263.90
2019-03-25T05:56:18.984Z,263.21
2019-03-25T05:57:19.334Z,264.11
2019-03-25T05:58:19.708Z,263.11
2019-03-25T05:59:19.993Z,265.39
2019-03-25T06:00:20.339Z,265.53
2019-03-25T06:01:20.651Z,265.07
2019-03-25T06:02:21.022Z,265.72
2019-03-25T06:03:21.443Z,264.89
2019-03-25T06:04:21.641Z,265.50
2019-03-25T06:05:21.988Z,265.71
2019-03-25T06:06:22.301Z,265.76
2019-03-25T06:07:22.648Z,265.94
2019-03-25T06:08:22.972Z,265.08
2019-03-25T06:09:23.292Z,266.92
2019-03-25T06:10:23.633Z,266.56
2019-03-25T06:11:24.035Z,266.76
2019-03-25T06:12:24.273Z,265.92
2019-03-25T06:13:24.626Z,265.24
2019-03-25T06:14:24.959Z,265.07
2019-03-25T06:15:25.301Z,265.29
2019-03-25T06:16:25.614Z,264.16
2019-03-25T06:17:25.957Z,265.05
2019-03-25T06:18:26.276Z,265.39
2019-03-25T06:19:26.669Z,265.04
2019-03-25T06:20:26.933Z,265.04
2019-03-25T06:21:27.255Z,264.54
2019-03-25T06:22:27.586Z,265.43
2019-03-25T06:23:27.938Z,264.97
2019-03-25T06:24:28.253Z,262.86
2019-03-25T06:25:28.612Z,263.60
2019-03-25T06:26:28.935Z,263.30
2019-03-25T06:27:29.315Z,264.06
2019-03-25T06:28:29.610Z,263.85
2019-03-25T06:29:31.944Z,264.42
2019-03-25T06:30:30.251Z,263.94
2019-03-25T06:31:30.595Z,264.49
2019-03-25T06:32:30.944Z,265.02
2019-03-25T06:33:31.290Z,265.91
2019-03-25T06:34:31.623Z,264.47
2019-03-25T06:35:31.962Z,266.11
2019-03-25T06:36:32.333Z,266.02
2019-03-25T06:37:32.592Z,266.27
2019-03-25T06:38:32.941Z,266.80
2019-03-25T06:39:33.264Z,267.19
2019-03-25T06:40:33.595Z,267.19
2019-03-25T06:41:33.895Z,265.69
2019-03-25T06:42:34.242Z,265.30
2019-03-25T06:43:34.611Z,266.81
2019-03-25T06:44:35.037Z,264.92
2019-03-25T06:45:35.256Z,265.69
2019-03-25T06:46:35.560Z,266.78
2019-03-25T06:47:35.913Z,267.59
2019-03-25T06:48:36.246Z,267.93
2019-03-25T06:49:36.575Z,267.50
2019-03-25T06:50:36.919Z,267.09
2019-03-25T06:51:37.232Z,267.72
2019-03-25T06:52:37.630Z,267.67
2019-03-25T06:53:37.893Z,267.34
2019-03-25T06:54:38.220Z,267.53
2019-03-25T06:55:38.556Z,266.86
2019-03-25T06:56:38.868Z,265.80
2019-03-25T06:57:39.182Z,266.90
2019-03-25T06:58:39.545Z,266.12
2019-03-25T06:59:39.885Z,266.04
2019-03-25T07:00:40.299Z,266.57
2019-03-25T07:01:40.517Z,266.09
2019-03-25T07:02:40.858Z,267.34
2019-03-25T07:03:41.185Z,267.41
2019-03-25T07:04:41.515Z,267.81
2019-03-25T07:05:41.857Z,266.53
2019-03-25T07:06:42.171Z,266.68
2019-03-25T07:07:42.500Z,267.08
2019-03-25T07:08:42.926Z,267.77
2019-03-25T07:09:43.158Z,267.59
2019-03-25T07:10:43.515Z,267.62
2019-03-25T07:11:43.823Z,267.02
2019-03-25T07:12:44.154Z,267.16
2019-03-25T07:13:44.514Z,267.45
2019-03-25T07:14:44.823Z,267.32
2019-03-25T07:15:45.150Z,267.33
2019-03-25T07:16:45.490Z,266.80
2019-03-25T07:17:45.956Z,267.21
2019-03-25T07:18:46.407Z,267.73
2019-03-25T07:19:46.492Z,267.06
2019-03-25T07:20:46.795Z,267.03
2019-03-25T07:21:47.142Z,267.57
2019-03-25T07:22:47.489Z,267.55
2019-03-25T07:23:47.831Z,266.88
2019-03-25T07:24:48.150Z,267.25
2019-03-25T07:25:48.604Z,265.80
2019-03-25T07:26:48.837Z,267.16
2019-03-25T07:27:49.167Z,267.08
2019-03-25T07:28:49.510Z,265.85
2019-03-25T07:29:49.833Z,266.35
2019-03-25T07:30:50.157Z,265.53
2019-03-25T07:31:50.477Z,266.03
2019-03-25T07:32:50.834Z,265.68
2019-03-25T07:33:51.261Z,265.13
2019-03-25T07:34:51.483Z,265.29
2019-03-25T07:35:51.812Z,265.91
2019-03-25T07:36:52.170Z,266.70
2019-03-25T07:37:52.456Z,266.75
2019-03-25T07:38:52.822Z,266.51
2019-03-25T07:39:53.141Z,266.82
2019-03-25T07:40:53.466Z,266.29
2019-03-25T07:41:53.873Z,265.92
2019-03-25T07:42:54.074Z,265.91
2019-03-25T07:43:54.454Z,265.81
2019-03-25T07:44:54.829Z,266.49
2019-03-25T07:45:55.123Z,265.98
2019-03-25T07:46:55.473Z,214.62
2019-03-25T07:47:55.784Z,214.61
2019-03-25T07:48:56.134Z,214.54
2019-03-25T07:49:56.474Z,214.58
2019-03-25T07:50:56.861Z,214.54
2019-03-25T07:51:57.125Z,214.48
2019-03-25T07:52:57.438Z,214.50
2019-03-25T07:53:57.794Z,214.46
2019-03-25T07:54:58.119Z,214.40
2019-03-25T07:55:58.434Z,214.38
2019-03-25T07:56:58.787Z,214.28
2019-03-25T07:57:59.098Z,214.33
2019-03-25T07:58:59.546Z,214.27
2019-03-25T07:59:59.782Z,214.23
2019-03-25T08:01:00.075Z,214.18
2019-03-25T08:02:00.423Z,214.29
2019-03-25T08:03:00.735Z,214.23
2019-03-25T08:04:01.092Z,214.27
2019-03-25T08:05:01.431Z,214.19
2019-03-25T08:06:01.730Z,214.10
2019-03-25T08:07:02.182Z,213.96
2019-03-25T08:08:02.392Z,213.82
2019-03-25T08:09:03.919Z,213.74
2019-03-25T08:10:03.126Z,213.81
2019-03-25T08:11:03.373Z,213.76
2019-03-25T08:12:03.772Z,213.76
2019-03-25T08:13:04.093Z,213.84
2019-03-25T08:14:04.430Z,213.84
2019-03-25T08:15:04.854Z,213.79
2019-03-25T08:16:05.022Z,213.79
2019-03-25T08:17:05.359Z,213.76
2019-03-25T08:18:05.690Z,213.78
2019-03-25T08:19:06.030Z,213.78
2019-03-25T08:20:06.376Z,213.78
2019-03-25T08:21:06.674Z,213.76
2019-03-25T08:22:07.027Z,213.76
2019-03-25T08:23:07.361Z,213.80
2019-03-25T08:24:07.712Z,213.70
2019-03-25T08:25:08.020Z,213.72
2019-03-25T08:26:08.335Z,213.65
2019-03-25T08:27:08.673Z,213.70
2019-03-25T08:28:08.977Z,213.67
2019-03-25T08:29:09.326Z,213.64
2019-03-25T08:30:09.681Z,213.53
2019-03-25T08:31:10.059Z,213.58
2019-03-25T08:32:10.466Z,213.45
2019-03-25T08:33:10.647Z,213.42
2019-03-25T08:34:10.991Z,213.24
2019-03-25T08:35:11.345Z,213.17
2019-03-25T08:36:11.687Z,213.03
2019-03-25T08:37:12.021Z,213.08
2019-03-25T08:38:12.325Z,212.94
2019-03-25T08:39:12.645Z,212.94
2019-03-25T08:40:13.189Z,213.01
2019-03-25T08:41:13.399Z,212.99
2019-03-25T08:42:13.737Z,212.94
2019-03-25T08:43:14.049Z,212.85
2019-03-25T08:44:14.369Z,212.83
2019-03-25T08:45:14.725Z,212.92
2019-03-25T08:46:15.049Z,212.92
2019-03-25T08:47:15.388Z,212.98
2019-03-25T08:48:15.786Z,213.09
2019-03-25T08:49:16.014Z,213.09
2019-03-25T08:50:16.353Z,213.08
2019-03-25T08:51:16.690Z,213.08
2019-03-25T08:52:17.026Z,213.11
2019-03-25T08:53:17.340Z,213.13
2019-03-25T08:54:17.673Z,213.12
2019-03-25T08:55:18.261Z,213.15
2019-03-25T08:56:18.348Z,213.11
2019-03-25T08:57:18.661Z,213.08
2019-03-25T08:58:18.985Z,213.05
2019-03-25T08:59:19.310Z,212.87
2019-03-25T09:00:19.669Z,212.89
2019-03-25T09:01:19.986Z,212.76
2019-03-25T09:02:20.314Z,212.63
2019-03-25T09:03:20.649Z,212.55
2019-03-25T09:04:21.240Z,212.48
2019-03-25T09:05:21.414Z,212.35
2019-03-25T09:06:21.643Z,212.32
2019-03-25T09:07:21.965Z,212.28
2019-03-25T09:08:22.294Z,212.40
2019-03-25T09:09:22.640Z,212.34
2019-03-25T09:10:22.986Z,212.43
2019-03-25T09:11:23.309Z,212.42
2019-03-25T09:12:23.650Z,212.43
2019-03-25T09:13:24.045Z,212.48
2019-03-25T09:14:24.283Z,212.38
2019-03-25T09:15:24.626Z,212.49
2019-03-25T09:16:24.946Z,212.46
2019-03-25T09:17:25.295Z,212.46
2019-03-25T09:18:25.595Z,212.59
2019-03-25T09:19:25.949Z,212.65
2019-03-25T09:20:26.309Z,212.69
2019-03-25T09:21:26.727Z,212.79
2019-03-25T09:22:26.955Z,212.73
2019-03-25T09:23:27.267Z,212.74
2019-03-25T09:24:27.585Z,265.51
2019-03-25T09:25:27.954Z,264.98
2019-03-25T09:26:28.268Z,263.58
2019-03-25T09:27:28.597Z,264.29
2019-03-25T09:28:28.917Z,264.50
2019-03-25T09:29:29.268Z,264.34
2019-03-25T09:30:29.573Z,264.32
2019-03-25T09:31:36.838Z,264.19
2019-03-25T09:32:31.259Z,264.91
2019-03-25T09:33:30.581Z,264.33
2019-03-25T09:34:30.897Z,265.24
2019-03-25T09:35:31.251Z,264.72
2019-03-25T09:36:31.570Z,265.53
2019-03-25T09:37:31.949Z,265.51
2019-03-25T09:38:32.266Z,264.17
2019-03-25T09:39:32.566Z,264.32
2019-03-25T09:40:32.903Z,264.19
2019-03-25T09:41:33.229Z,265.48
2019-03-25T09:42:33.549Z,264.77
2019-03-25T09:43:33.872Z,264.44
2019-03-25T09:44:34.202Z,265.76
2019-03-25T09:45:34.577Z,265.47
2019-03-25T09:46:34.979Z,265.49
2019-03-25T09:47:37.642Z,265.38
2019-03-25T09:48:35.530Z,265.48
2019-03-25T09:49:35.865Z,265.66
2019-03-25T09:50:36.210Z,264.02
2019-03-25T09:51:36.532Z,264.75
2019-03-25T09:52:38.665Z,264.55
2019-03-25T09:53:37.189Z,263.69
2019-03-25T09:54:37.660Z,264.57
2019-03-25T09:55:37.885Z,264.37
2019-03-25T09:56:38.214Z,264.79
2019-03-25T09:57:38.510Z,264.51
2019-03-25T09:58:38.876Z,265.15
2019-03-25T09:59:39.183Z,265.03
2019-03-25T10:00:39.534Z,264.20
2019-03-25T10:01:39.848Z,265.29
2019-03-25T10:02:40.208Z,264.11
2019-03-25T10:03:40.499Z,265.17
2019-03-25T10:04:40.835Z,265.30
2019-03-25T10:05:41.179Z,265.20
2019-03-25T10:06:41.502Z,265.07
2019-03-25T10:07:41.843Z,265.61
2019-03-25T10:08:42.170Z,265.04
2019-03-25T10:09:42.469Z,265.93
2019-03-25T10:10:42.886Z,265.01
2019-03-25T10:11:43.117Z,266.28
2019-03-25T10:12:43.479Z,265.06
2019-03-25T10:13:43.797Z,264.92
2019-03-25T10:14:44.102Z,264.06
2019-03-25T10:15:44.466Z,264.43
2019-03-25T10:16:44.803Z,264.22
2019-03-25T10:17:45.132Z,264.63
2019-03-25T10:18:45.492Z,265.05
2019-03-25T10:19:45.858Z,264.91
2019-03-25T10:20:46.131Z,264.82
2019-03-25T10:21:46.457Z,265.12
2019-03-25T10:22:46.795Z,264.92
2019-03-25T10:23:47.147Z,264.70
2019-03-25T10:24:47.446Z,264.04
2019-03-25T10:25:47.796Z,264.06
2019-03-25T10:26:48.095Z,265.11
2019-03-25T10:27:48.575Z,264.26
2019-03-25T10:28:49.315Z,265.27
2019-03-25T10:29:49.094Z,263.57
2019-03-25T10:30:49.428Z,263.92
2019-03-25T10:31:49.749Z,263.14
2019-03-25T10:32:50.095Z,264.66
2019-03-25T10:33:50.431Z,264.82
2019-03-25T10:34:50.979Z,263.57
2019-03-25T10:35:51.181Z,264.01
2019-03-25T10:36:51.387Z,264.50
2019-03-25T10:37:51.816Z,264.50
2019-03-25T10:38:52.076Z,263.59
2019-03-25T10:39:52.388Z,264.95
2019-03-25T10:40:52.728Z,264.39
2019-03-25T10:41:53.049Z,264.32
2019-03-25T10:42:53.371Z,263.81
2019-03-25T10:43:53.760Z,264.27
2019-03-25T10:44:54.036Z,264.19
2019-03-25T10:45:54.388Z,264.61
2019-03-25T10:46:54.698Z,264.87
2019-03-25T10:47:55.055Z,264.57
2019-03-25T10:48:55.407Z,264.27
2019-03-25T10:49:55.683Z,264.94
2019-03-25T10:50:56.032Z,264.25
2019-03-25T10:51:56.385Z,263.81
2019-03-25T10:52:56.754Z,263.79
2019-03-25T10:53:57.026Z,264.01
2019-03-25T10:55:57.701Z,263.27
2019-03-25T10:56:58.051Z,264.25
2019-03-25T10:57:58.386Z,264.57
2019-03-25T10:58:58.728Z,264.19
2019-03-25T10:59:59.049Z,263.12
2019-03-25T11:00:59.487Z,264.54
2019-03-25T11:01:59.709Z,263.45
2019-03-25T11:03:00.038Z,263.37
2019-03-25T11:04:00.377Z,263.76
2019-03-25T11:05:00.676Z,264.46
2019-03-25T11:06:01.017Z,263.52
2019-03-25T11:07:01.374Z,263.09
2019-03-25T11:08:01.681Z,264.14
2019-03-25T11:09:02.117Z,261.97
2019-03-25T11:10:02.320Z,264.86
2019-03-25T11:11:03.522Z,264.28
2019-03-25T11:12:03.046Z,263.73
2019-03-25T11:13:03.337Z,263.66
2019-03-25T11:14:03.671Z,264.16
2019-03-25T11:15:03.984Z,263.76
2019-03-25T11:16:04.300Z,263.22
2019-03-25T11:17:04.701Z,263.78
2019-03-25T11:18:05.802Z,263.57
2019-03-25T11:19:05.312Z,263.50
2019-03-25T11:20:05.623Z,262.84
2019-03-25T11:21:05.953Z,263.03
2019-03-25T11:22:06.285Z,261.85
2019-03-25T11:23:06.625Z,263.16
2019-03-25T11:24:06.959Z,261.67
2019-03-25T11:25:07.338Z,263.15
2019-03-25T11:26:07.577Z,262.78
2019-03-25T11:27:07.932Z,263.52
2019-03-25T11:28:08.241Z,263.12
2019-03-25T11:29:08.956Z,263.41
2019-03-25T11:30:08.909Z,262.94
2019-03-25T11:31:09.370Z,263.09
2019-03-25T11:32:09.590Z,261.65
2019-03-25T11:33:09.941Z,263.34
2019-03-25T11:34:10.292Z,263.70
2019-03-25T11:35:10.558Z,262.10
2019-03-25T11:36:10.879Z,262.45
2019-03-25T11:37:11.283Z,262.95
2019-03-25T11:38:11.555Z,262.89
2019-03-25T11:39:11.879Z,262.24
2019-03-25T11:40:12.213Z,263.53
2019-03-25T11:41:12.542Z,263.48
2019-03-25T11:42:12.985Z,265.61
2019-03-25T11:43:13.191Z,264.32
2019-03-25T11:44:13.536Z,265.55
2019-03-25T11:45:13.864Z,264.78
2019-03-25T11:46:14.193Z,264.93
2019-03-25T11:47:14.540Z,265.31
2019-03-25T11:48:14.865Z,266.41
2019-03-25T11:49:15.197Z,265.34
2019-03-25T11:50:15.611Z,265.53
2019-03-25T11:51:15.837Z,265.65
2019-03-25T11:52:16.178Z,265.31
2019-03-25T11:53:16.510Z,265.71
2019-03-25T11:54:16.816Z,265.14
2019-03-25T11:55:17.827Z,265.82
2019-03-25T11:56:17.490Z,265.66
2019-03-25T11:57:17.874Z,264.73
2019-03-25T11:58:18.203Z,264.44
2019-03-25T11:59:18.998Z,264.91
2019-03-25T12:00:18.796Z,265.37
2019-03-25T12:01:19.148Z,264.18
2019-03-25T12:02:19.500Z,265.10
2019-03-25T12:03:19.826Z,264.91
2019-03-25T12:04:20.145Z,263.62
2019-03-25T12:05:20.494Z,264.94
2019-03-25T12:06:20.865Z,264.05
2019-03-25T12:07:21.195Z,263.76
2019-03-25T12:08:21.505Z,265.10
2019-03-25T12:09:21.816Z,263.50
2019-03-25T12:10:22.162Z,264.48
2019-03-25T12:11:23.663Z,264.23
2019-03-25T12:12:22.809Z,263.47
2019-03-25T12:13:23.165Z,263.91
2019-03-25T12:14:23.495Z,264.05
2019-03-25T12:15:24.163Z,264.38
2019-03-25T12:16:24.108Z,264.39
2019-03-25T12:17:24.469Z,263.76
2019-03-25T12:18:24.821Z,262.36
2019-03-25T12:19:25.128Z,264.22
2019-03-25T12:20:25.476Z,263.64
2019-03-25T12:21:25.783Z,263.08
2019-03-25T12:22:26.136Z,263.42
2019-03-25T12:23:26.758Z,263.14
2019-03-25T12:24:26.783Z,264.16
2019-03-25T12:25:27.143Z,263.16
2019-03-25T12:26:27.444Z,262.16
2019-03-25T12:27:27.855Z,264.13
2019-03-25T12:28:28.121Z,264.35
2019-03-25T12:29:30.330Z,262.57
2019-03-25T12:30:28.787Z,262.64
2019-03-25T12:31:29.144Z,262.87
2019-03-25T12:32:29.425Z,262.95
2019-03-25T12:33:29.804Z,262.32